sensor_id;sensor_type;location;lat;lon;timestamp;temperature;humidity
17701;DHT22;8969;48.576;12.580;2024-01-27T00:02:27;3.00;99.90
17701;DHT22;8969;48.576;12.580;2024-01-27T00:04:56;3.00;99.90
17701;DHT22;8969;48.576;12.580;2024-01-27T00:07:25;2.90;99.90
17701;DHT22;8969;48.576;12.580;2024-01-27T00:09:54;3.00;99.90
17701;DHT22;8969;48.576;12.580;2024-01-27T00:12:23;2.90;99.90
17701;DHT22;8969;48.576;12.580;2024-01-27T00:14:51;2.90;99.90
17701;DHT22;8969;48.576;12.580;2024-01-27T00:17:19;2.80;99.90
17701;DHT22;8969;48.576;12.580;2024-01-27T00:19:51;2.80;99.90
17701;DHT22;8969;48.576;12.580;2024-01-27T00:22:19;2.70;99.90
17701;DHT22;8969;48.576;12.580;2024-01-27T00:24:49;2.70;99.90
17701;DHT22;8969;48.576;12.580;2024-01-27T00:27:17;2.70;99.90
17701;DHT22;8969;48.576;12.580;2024-01-27T00:29:45;2.70;99.90
17701;DHT22;8969;48.576;12.580;2024-01-27T00:32:13;2.60;99.90
17701;DHT22;8969;48.576;12.580;2024-01-27T00:34:41;2.70;99.90
17701;DHT22;8969;48.576;12.580;2024-01-27T00:37:09;2.70;99.90
17701;DHT22;8969;48.576;12.580;2024-01-27T00:39:37;2.60;99.90
17701;DHT22;8969;48.576;12.580;2024-01-27T00:42:07;2.60;99.90
17701;DHT22;8969;48.576;12.580;2024-01-27T00:44:36;2.60;99.90
17701;DHT22;8969;48.576;12.580;2024-01-27T00:47:04;2.60;99.90
17701;DHT22;8969;48.576;12.580;2024-01-27T00:49:33;2.60;99.90
17701;DHT22;8969;48.576;12.580;2024-01-27T00:52:02;2.60;99.90
17701;DHT22;8969;48.576;12.580;2024-01-27T00:54:30;2.60;99.90
17701;DHT22;8969;48.576;12.580;2024-01-27T00:56:58;2.60;99.90
17701;DHT22;8969;48.576;12.580;2024-01-27T00:59:28;2.60;99.90
17701;DHT22;8969;48.576;12.580;2024-01-27T01:01:56;2.50;99.90
17701;DHT22;8969;48.576;12.580;2024-01-27T01:04:24;2.50;99.90
17701;DHT22;8969;48.576;12.580;2024-01-27T01:06:52;2.40;99.90
17701;DHT22;8969;48.576;12.580;2024-01-27T01:09:20;2.30;99.90
17701;DHT22;8969;48.576;12.580;2024-01-27T01:11:48;2.30;99.90
17701;DHT22;8969;48.576;12.580;2024-01-27T01:14:17;2.30;99.90
17701;DHT22;8969;48.576;12.580;2024-01-27T01:16:46;2.40;99.90
17701;DHT22;8969;48.576;12.580;2024-01-27T01:19:14;2.40;99.90
17701;DHT22;8969;48.576;12.580;2024-01-27T01:21:42;2.40;99.90
17701;DHT22;8969;48.576;12.580;2024-01-27T01:24:11;2.40;99.90
17701;DHT22;8969;48.576;12.580;2024-01-27T01:26:39;2.40;99.90
17701;DHT22;8969;48.576;12.580;2024-01-27T01:29:07;2.40;99.90
17701;DHT22;8969;48.576;12.580;2024-01-27T01:31:36;2.40;99.90
17701;DHT22;8969;48.576;12.580;2024-01-27T01:34:06;2.50;99.90
17701;DHT22;8969;48.576;12.580;2024-01-27T01:36:34;2.50;99.90
17701;DHT22;8969;48.576;12.580;2024-01-27T01:39:02;2.50;99.90
17701;DHT22;8969;48.576;12.580;2024-01-27T01:41:31;2.40;99.90
17701;DHT22;8969;48.576;12.580;2024-01-27T01:43:59;2.30;99.90
17701;DHT22;8969;48.576;12.580;2024-01-27T01:46:27;2.30;99.90
17701;DHT22;8969;48.576;12.580;2024-01-27T01:48:55;2.20;99.90
17701;DHT22;8969;48.576;12.580;2024-01-27T01:51:26;2.20;99.90
17701;DHT22;8969;48.576;12.580;2024-01-27T01:53:57;2.30;99.90
17701;DHT22;8969;48.576;12.580;2024-01-27T01:56:26;2.30;99.90
17701;DHT22;8969;48.576;12.580;2024-01-27T01:58:54;2.20;99.90
17701;DHT22;8969;48.576;12.580;2024-01-27T02:01:24;2.20;99.90
17701;DHT22;8969;48.576;12.580;2024-01-27T02:03:53;2.10;99.90
17701;DHT22;8969;48.576;12.580;2024-01-27T02:06:21;2.10;99.90
17701;DHT22;8969;48.576;12.580;2024-01-27T02:08:51;2.10;99.90
17701;DHT22;8969;48.576;12.580;2024-01-27T02:15:19;2.10;99.90
17701;DHT22;8969;48.576;12.580;2024-01-27T02:17:48;2.10;99.90
17701;DHT22;8969;48.576;12.580;2024-01-27T02:20:16;1.90;99.90
17701;DHT22;8969;48.576;12.580;2024-01-27T02:22:44;1.80;99.90
17701;DHT22;8969;48.576;12.580;2024-01-27T02:25:13;1.80;99.90
17701;DHT22;8969;48.576;12.580;2024-01-27T02:27:41;1.70;99.90
17701;DHT22;8969;48.576;12.580;2024-01-27T02:30:09;1.70;99.90
17701;DHT22;8969;48.576;12.580;2024-01-27T02:32:38;1.70;99.90
17701;DHT22;8969;48.576;12.580;2024-01-27T02:35:06;1.70;99.90
17701;DHT22;8969;48.576;12.580;2024-01-27T02:37:35;1.70;99.90
17701;DHT22;8969;48.576;12.580;2024-01-27T02:40:03;1.70;99.90
17701;DHT22;8969;48.576;12.580;2024-01-27T02:42:34;1.70;99.90
17701;DHT22;8969;48.576;12.580;2024-01-27T02:45:02;1.60;99.90
17701;DHT22;8969;48.576;12.580;2024-01-27T02:47:30;1.60;99.90
17701;DHT22;8969;48.576;12.580;2024-01-27T02:49:58;1.70;99.90
17701;DHT22;8969;48.576;12.580;2024-01-27T02:52:26;1.60;99.90
17701;DHT22;8969;48.576;12.580;2024-01-27T02:54:55;1.60;99.90
17701;DHT22;8969;48.576;12.580;2024-01-27T02:57:24;1.60;99.90
17701;DHT22;8969;48.576;12.580;2024-01-27T02:59:53;1.70;99.90
17701;DHT22;8969;48.576;12.580;2024-01-27T03:02:22;1.60;99.90
17701;DHT22;8969;48.576;12.580;2024-01-27T03:04:50;1.60;99.90
17701;DHT22;8969;48.576;12.580;2024-01-27T03:07:18;1.70;99.90
17701;DHT22;8969;48.576;12.580;2024-01-27T03:09:46;1.70;99.90
17701;DHT22;8969;48.576;12.580;2024-01-27T03:12:14;1.70;99.90
17701;DHT22;8969;48.576;12.580;2024-01-27T03:14:42;1.60;99.90
17701;DHT22;8969;48.576;12.580;2024-01-27T03:17:13;1.60;99.90
17701;DHT22;8969;48.576;12.580;2024-01-27T03:19:40;1.50;99.90
17701;DHT22;8969;48.576;12.580;2024-01-27T03:22:11;1.50;99.90
17701;DHT22;8969;48.576;12.580;2024-01-27T03:24:39;1.50;99.90
17701;DHT22;8969;48.576;12.580;2024-01-27T03:27:08;1.50;99.90
17701;DHT22;8969;48.576;12.580;2024-01-27T03:29:36;1.60;99.90
17701;DHT22;8969;48.576;12.580;2024-01-27T03:32:04;1.50;99.90
17701;DHT22;8969;48.576;12.580;2024-01-27T03:34:34;1.60;99.90
17701;DHT22;8969;48.576;12.580;2024-01-27T03:37:03;1.50;99.90
17701;DHT22;8969;48.576;12.580;2024-01-27T03:39:31;1.50;99.90
17701;DHT22;8969;48.576;12.580;2024-01-27T03:41:59;1.50;99.90
17701;DHT22;8969;48.576;12.580;2024-01-27T03:44:27;1.40;99.90
17701;DHT22;8969;48.576;12.580;2024-01-27T03:46:55;1.40;99.90
17701;DHT22;8969;48.576;12.580;2024-01-27T03:49:23;1.40;99.90
17701;DHT22;8969;48.576;12.580;2024-01-27T03:51:52;1.50;99.90
17701;DHT22;8969;48.576;12.580;2024-01-27T03:54:20;1.40;99.90
17701;DHT22;8969;48.576;12.580;2024-01-27T03:56:48;1.40;99.90
17701;DHT22;8969;48.576;12.580;2024-01-27T03:59:16;1.40;99.90
17701;DHT22;8969;48.576;12.580;2024-01-27T04:01:44;1.40;99.90
17701;DHT22;8969;48.576;12.580;2024-01-27T04:04:13;1.40;99.90
17701;DHT22;8969;48.576;12.580;2024-01-27T04:06:41;1.40;99.90
17701;DHT22;8969;48.576;12.580;2024-01-27T04:09:10;1.40;99.90
17701;DHT22;8969;48.576;12.580;2024-01-27T04:11:39;1.30;99.90
17701;DHT22;8969;48.576;12.580;2024-01-27T04:14:07;1.30;99.90
17701;DHT22;8969;48.576;12.580;2024-01-27T04:16:35;1.30;99.90
17701;DHT22;8969;48.576;12.580;2024-01-27T04:19:03;1.40;99.90
17701;DHT22;8969;48.576;12.580;2024-01-27T04:21:31;1.40;99.90
17701;DHT22;8969;48.576;12.580;2024-01-27T04:23:59;1.30;99.90
17701;DHT22;8969;48.576;12.580;2024-01-27T04:26:29;1.30;99.90
17701;DHT22;8969;48.576;12.580;2024-01-27T04:28:57;1.20;99.90
17701;DHT22;8969;48.576;12.580;2024-01-27T04:31:25;1.30;99.90
17701;DHT22;8969;48.576;12.580;2024-01-27T04:33:53;1.30;99.90
17701;DHT22;8969;48.576;12.580;2024-01-27T04:36:27;1.30;99.90
17701;DHT22;8969;48.576;12.580;2024-01-27T04:38:56;1.20;99.90
17701;DHT22;8969;48.576;12.580;2024-01-27T04:41:24;1.30;99.90
17701;DHT22;8969;48.576;12.580;2024-01-27T04:43:54;1.20;99.90
17701;DHT22;8969;48.576;12.580;2024-01-27T04:46:23;1.20;99.90
17701;DHT22;8969;48.576;12.580;2024-01-27T04:48:52;1.20;99.90
17701;DHT22;8969;48.576;12.580;2024-01-27T04:51:20;1.20;99.90
17701;DHT22;8969;48.576;12.580;2024-01-27T04:53:48;1.20;99.90
17701;DHT22;8969;48.576;12.580;2024-01-27T04:56:16;1.10;99.90
17701;DHT22;8969;48.576;12.580;2024-01-27T04:58:44;1.10;99.90
17701;DHT22;8969;48.576;12.580;2024-01-27T05:01:14;1.10;99.90
17701;DHT22;8969;48.576;12.580;2024-01-27T05:03:42;1.10;99.90
17701;DHT22;8969;48.576;12.580;2024-01-27T05:06:10;1.10;99.90
17701;DHT22;8969;48.576;12.580;2024-01-27T05:08:39;1.00;99.90
17701;DHT22;8969;48.576;12.580;2024-01-27T05:11:07;1.00;99.90
17701;DHT22;8969;48.576;12.580;2024-01-27T05:13:35;1.00;99.90
17701;DHT22;8969;48.576;12.580;2024-01-27T05:16:05;0.90;99.90
17701;DHT22;8969;48.576;12.580;2024-01-27T05:18:34;0.90;99.90
17701;DHT22;8969;48.576;12.580;2024-01-27T05:21:03;0.90;99.90
17701;DHT22;8969;48.576;12.580;2024-01-27T05:23:31;0.90;99.90
17701;DHT22;8969;48.576;12.580;2024-01-27T05:25:59;0.90;99.90
17701;DHT22;8969;48.576;12.580;2024-01-27T05:28:27;0.90;99.90
17701;DHT22;8969;48.576;12.580;2024-01-27T05:30:55;0.90;99.90
17701;DHT22;8969;48.576;12.580;2024-01-27T05:33:23;0.80;99.90
17701;DHT22;8969;48.576;12.580;2024-01-27T05:35:52;0.90;99.90
17701;DHT22;8969;48.576;12.580;2024-01-27T05:38:21;0.80;99.90
17701;DHT22;8969;48.576;12.580;2024-01-27T05:40:49;0.80;99.90
17701;DHT22;8969;48.576;12.580;2024-01-27T05:43:17;0.80;99.90
17701;DHT22;8969;48.576;12.580;2024-01-27T05:45:46;0.80;99.90
17701;DHT22;8969;48.576;12.580;2024-01-27T05:48:14;0.80;99.90
17701;DHT22;8969;48.576;12.580;2024-01-27T05:50:42;0.80;99.90
17701;DHT22;8969;48.576;12.580;2024-01-27T05:53:12;0.80;99.90
17701;DHT22;8969;48.576;12.580;2024-01-27T05:55:40;0.80;99.90
17701;DHT22;8969;48.576;12.580;2024-01-27T05:58:08;0.80;99.90
17701;DHT22;8969;48.576;12.580;2024-01-27T06:00:36;0.80;99.90
17701;DHT22;8969;48.576;12.580;2024-01-27T06:03:04;0.80;99.90
17701;DHT22;8969;48.576;12.580;2024-01-27T06:05:33;0.80;99.90
17701;DHT22;8969;48.576;12.580;2024-01-27T06:08:01;0.80;99.90
17701;DHT22;8969;48.576;12.580;2024-01-27T06:10:30;0.80;99.90
17701;DHT22;8969;48.576;12.580;2024-01-27T06:12:58;0.80;99.90
17701;DHT22;8969;48.576;12.580;2024-01-27T06:15:26;0.70;99.90
17701;DHT22;8969;48.576;12.580;2024-01-27T06:17:55;0.60;99.90
17701;DHT22;8969;48.576;12.580;2024-01-27T06:20:23;0.60;99.90
17701;DHT22;8969;48.576;12.580;2024-01-27T06:22:51;0.50;99.90
17701;DHT22;8969;48.576;12.580;2024-01-27T06:25:20;0.50;99.90
17701;DHT22;8969;48.576;12.580;2024-01-27T06:27:49;0.50;99.90
17701;DHT22;8969;48.576;12.580;2024-01-27T06:30:18;0.50;99.90
17701;DHT22;8969;48.576;12.580;2024-01-27T06:32:47;0.60;99.90
17701;DHT22;8969;48.576;12.580;2024-01-27T06:35:15;0.60;99.90
17701;DHT22;8969;48.576;12.580;2024-01-27T06:37:44;0.50;99.90
17701;DHT22;8969;48.576;12.580;2024-01-27T06:40:12;0.50;99.90
17701;DHT22;8969;48.576;12.580;2024-01-27T06:42:41;0.40;99.90
17701;DHT22;8969;48.576;12.580;2024-01-27T06:45:11;0.40;99.90
17701;DHT22;8969;48.576;12.580;2024-01-27T06:47:40;0.30;99.90
17701;DHT22;8969;48.576;12.580;2024-01-27T06:50:08;0.30;99.90
17701;DHT22;8969;48.576;12.580;2024-01-27T06:52:37;0.30;99.90
17701;DHT22;8969;48.576;12.580;2024-01-27T06:55:06;0.40;99.90
17701;DHT22;8969;48.576;12.580;2024-01-27T06:57:34;0.30;99.90
17701;DHT22;8969;48.576;12.580;2024-01-27T07:00:02;0.40;99.90
17701;DHT22;8969;48.576;12.580;2024-01-27T07:02:32;0.40;99.90
17701;DHT22;8969;48.576;12.580;2024-01-27T07:05:00;0.40;99.90
17701;DHT22;8969;48.576;12.580;2024-01-27T07:07:29;0.40;99.90
17701;DHT22;8969;48.576;12.580;2024-01-27T07:09:58;0.40;99.90
17701;DHT22;8969;48.576;12.580;2024-01-27T07:12:26;0.40;99.90
17701;DHT22;8969;48.576;12.580;2024-01-27T07:14:55;0.40;99.90
17701;DHT22;8969;48.576;12.580;2024-01-27T07:17:24;0.50;99.90
17701;DHT22;8969;48.576;12.580;2024-01-27T07:19:54;0.60;99.90
17701;DHT22;8969;48.576;12.580;2024-01-27T07:22:22;0.70;99.90
17701;DHT22;8969;48.576;12.580;2024-01-27T07:24:50;0.80;99.90
17701;DHT22;8969;48.576;12.580;2024-01-27T07:27:19;0.80;99.90
17701;DHT22;8969;48.576;12.580;2024-01-27T07:29:47;0.90;99.90
17701;DHT22;8969;48.576;12.580;2024-01-27T07:32:15;0.90;99.90
17701;DHT22;8969;48.576;12.580;2024-01-27T07:34:43;0.90;99.90
17701;DHT22;8969;48.576;12.580;2024-01-27T07:37:13;1.00;99.90
17701;DHT22;8969;48.576;12.580;2024-01-27T07:39:42;1.00;99.90
17701;DHT22;8969;48.576;12.580;2024-01-27T07:42:10;1.00;99.90
17701;DHT22;8969;48.576;12.580;2024-01-27T07:44:38;1.10;99.90
17701;DHT22;8969;48.576;12.580;2024-01-27T07:47:06;1.20;99.90
17701;DHT22;8969;48.576;12.580;2024-01-27T07:49:35;1.20;99.90
17701;DHT22;8969;48.576;12.580;2024-01-27T07:52:04;1.10;99.90
17701;DHT22;8969;48.576;12.580;2024-01-27T07:54:34;1.10;99.90
17701;DHT22;8969;48.576;12.580;2024-01-27T07:57:06;1.10;99.90
17701;DHT22;8969;48.576;12.580;2024-01-27T07:59:34;1.20;99.90
17701;DHT22;8969;48.576;12.580;2024-01-27T08:02:02;1.30;99.90
17701;DHT22;8969;48.576;12.580;2024-01-27T08:04:31;1.30;99.90
17701;DHT22;8969;48.576;12.580;2024-01-27T08:06:59;1.40;99.90
17701;DHT22;8969;48.576;12.580;2024-01-27T08:09:34;1.50;99.90
17701;DHT22;8969;48.576;12.580;2024-01-27T08:12:02;1.50;99.90
17701;DHT22;8969;48.576;12.580;2024-01-27T08:14:31;1.60;99.90
17701;DHT22;8969;48.576;12.580;2024-01-27T08:16:59;1.60;99.90
17701;DHT22;8969;48.576;12.580;2024-01-27T08:19:27;1.60;99.90
17701;DHT22;8969;48.576;12.580;2024-01-27T08:21:55;1.70;99.90
17701;DHT22;8969;48.576;12.580;2024-01-27T08:24:23;1.80;99.90
17701;DHT22;8969;48.576;12.580;2024-01-27T08:26:53;2.00;99.90
17701;DHT22;8969;48.576;12.580;2024-01-27T08:29:22;2.00;99.90
17701;DHT22;8969;48.576;12.580;2024-01-27T08:31:50;2.20;99.90
17701;DHT22;8969;48.576;12.580;2024-01-27T08:34:18;2.20;99.90
17701;DHT22;8969;48.576;12.580;2024-01-27T08:36:46;2.30;99.90
17701;DHT22;8969;48.576;12.580;2024-01-27T08:39:14;2.40;99.90
17701;DHT22;8969;48.576;12.580;2024-01-27T08:41:42;2.40;99.90
17701;DHT22;8969;48.576;12.580;2024-01-27T08:44:13;2.50;99.90
17701;DHT22;8969;48.576;12.580;2024-01-27T08:46:41;2.60;99.90
17701;DHT22;8969;48.576;12.580;2024-01-27T08:49:09;2.60;99.90
17701;DHT22;8969;48.576;12.580;2024-01-27T08:51:37;2.70;99.90
17701;DHT22;8969;48.576;12.580;2024-01-27T08:54:05;2.80;99.90
17701;DHT22;8969;48.576;12.580;2024-01-27T08:56:33;2.90;99.90
17701;DHT22;8969;48.576;12.580;2024-01-27T08:59:03;2.90;99.90
17701;DHT22;8969;48.576;12.580;2024-01-27T09:01:32;3.00;99.90
17701;DHT22;8969;48.576;12.580;2024-01-27T09:04:01;3.10;99.90
17701;DHT22;8969;48.576;12.580;2024-01-27T09:06:29;3.20;99.90
17701;DHT22;8969;48.576;12.580;2024-01-27T09:08:58;3.30;99.90
17701;DHT22;8969;48.576;12.580;2024-01-27T09:11:27;3.40;99.90
17701;DHT22;8969;48.576;12.580;2024-01-27T09:13:57;3.40;99.90
17701;DHT22;8969;48.576;12.580;2024-01-27T09:16:25;3.50;99.90
17701;DHT22;8969;48.576;12.580;2024-01-27T09:18:54;3.50;99.90
17701;DHT22;8969;48.576;12.580;2024-01-27T09:21:22;3.60;99.90
17701;DHT22;8969;48.576;12.580;2024-01-27T09:23:55;3.60;99.90
17701;DHT22;8969;48.576;12.580;2024-01-27T09:26:24;3.70;99.90
17701;DHT22;8969;48.576;12.580;2024-01-27T09:28:53;3.70;99.90
17701;DHT22;8969;48.576;12.580;2024-01-27T09:31:22;3.70;99.90
17701;DHT22;8969;48.576;12.580;2024-01-27T09:33:51;3.80;99.90
17701;DHT22;8969;48.576;12.580;2024-01-27T09:36:22;3.90;99.90
17701;DHT22;8969;48.576;12.580;2024-01-27T09:38:50;4.00;99.90
17701;DHT22;8969;48.576;12.580;2024-01-27T09:41:19;4.10;99.90
17701;DHT22;8969;48.576;12.580;2024-01-27T09:43:47;4.10;99.90
17701;DHT22;8969;48.576;12.580;2024-01-27T09:46:16;4.10;99.90
17701;DHT22;8969;48.576;12.580;2024-01-27T09:48:45;4.20;99.90
17701;DHT22;8969;48.576;12.580;2024-01-27T09:51:15;4.20;99.90
17701;DHT22;8969;48.576;12.580;2024-01-27T09:53:45;4.20;99.90
17701;DHT22;8969;48.576;12.580;2024-01-27T09:56:14;4.20;99.90
17701;DHT22;8969;48.576;12.580;2024-01-27T09:58:45;4.30;99.90
17701;DHT22;8969;48.576;12.580;2024-01-27T10:01:16;4.40;99.90
17701;DHT22;8969;48.576;12.580;2024-01-27T10:03:45;4.40;99.90
17701;DHT22;8969;48.576;12.580;2024-01-27T10:06:14;4.40;99.90
17701;DHT22;8969;48.576;12.580;2024-01-27T10:08:45;4.40;99.90
17701;DHT22;8969;48.576;12.580;2024-01-27T10:11:15;4.40;99.90
17701;DHT22;8969;48.576;12.580;2024-01-27T10:13:44;4.40;99.90
17701;DHT22;8969;48.576;12.580;2024-01-27T10:16:13;4.40;99.90
17701;DHT22;8969;48.576;12.580;2024-01-27T10:18:41;4.50;99.90
17701;DHT22;8969;48.576;12.580;2024-01-27T10:21:12;4.60;99.90
17701;DHT22;8969;48.576;12.580;2024-01-27T10:23:41;4.60;99.90
17701;DHT22;8969;48.576;12.580;2024-01-27T10:26:11;4.70;99.90
17701;DHT22;8969;48.576;12.580;2024-01-27T10:28:40;4.70;99.90
17701;DHT22;8969;48.576;12.580;2024-01-27T10:31:09;4.70;99.90
17701;DHT22;8969;48.576;12.580;2024-01-27T10:33:38;4.70;99.90
17701;DHT22;8969;48.576;12.580;2024-01-27T10:36:07;4.80;99.90
17701;DHT22;8969;48.576;12.580;2024-01-27T10:38:35;4.80;99.90
17701;DHT22;8969;48.576;12.580;2024-01-27T10:41:07;4.80;99.90
17701;DHT22;8969;48.576;12.580;2024-01-27T10:43:37;4.90;99.90
17701;DHT22;8969;48.576;12.580;2024-01-27T10:46:07;5.00;99.90
17701;DHT22;8969;48.576;12.580;2024-01-27T10:48:36;5.00;99.90
17701;DHT22;8969;48.576;12.580;2024-01-27T10:51:08;5.00;99.90
17701;DHT22;8969;48.576;12.580;2024-01-27T10:53:37;5.00;99.90
17701;DHT22;8969;48.576;12.580;2024-01-27T10:56:07;5.00;99.90
17701;DHT22;8969;48.576;12.580;2024-01-27T10:58:40;5.00;99.90
17701;DHT22;8969;48.576;12.580;2024-01-27T11:01:11;5.10;99.90
17701;DHT22;8969;48.576;12.580;2024-01-27T11:03:40;5.10;99.90
17701;DHT22;8969;48.576;12.580;2024-01-27T11:06:11;5.10;99.90
17701;DHT22;8969;48.576;12.580;2024-01-27T11:08:40;5.20;99.90
17701;DHT22;8969;48.576;12.580;2024-01-27T11:11:11;5.20;99.90
17701;DHT22;8969;48.576;12.580;2024-01-27T11:13:41;5.30;99.90
17701;DHT22;8969;48.576;12.580;2024-01-27T11:16:15;5.40;99.90
17701;DHT22;8969;48.576;12.580;2024-01-27T11:18:45;5.40;99.90
17701;DHT22;8969;48.576;12.580;2024-01-27T11:21:15;5.40;99.90
17701;DHT22;8969;48.576;12.580;2024-01-27T11:23:44;5.40;99.90
17701;DHT22;8969;48.576;12.580;2024-01-27T11:26:19;5.40;99.90
17701;DHT22;8969;48.576;12.580;2024-01-27T11:28:49;5.40;99.90
17701;DHT22;8969;48.576;12.580;2024-01-27T11:31:19;5.40;99.90
17701;DHT22;8969;48.576;12.580;2024-01-27T11:33:50;5.40;99.90
17701;DHT22;8969;48.576;12.580;2024-01-27T11:36:22;5.50;99.90
17701;DHT22;8969;48.576;12.580;2024-01-27T11:38:53;5.50;99.90
17701;DHT22;8969;48.576;12.580;2024-01-27T11:41:27;5.60;99.90
17701;DHT22;8969;48.576;12.580;2024-01-27T11:43:58;5.60;99.90
17701;DHT22;8969;48.576;12.580;2024-01-27T11:46:27;5.50;99.90
17701;DHT22;8969;48.576;12.580;2024-01-27T11:48:55;5.50;99.90
17701;DHT22;8969;48.576;12.580;2024-01-27T11:51:25;5.60;99.90
17701;DHT22;8969;48.576;12.580;2024-01-27T11:53:54;5.60;99.90
17701;DHT22;8969;48.576;12.580;2024-01-27T11:56:22;5.70;99.90
17701;DHT22;8969;48.576;12.580;2024-01-27T11:58:51;5.70;99.90
17701;DHT22;8969;48.576;12.580;2024-01-27T12:01:21;5.60;99.90
17701;DHT22;8969;48.576;12.580;2024-01-27T12:03:49;5.60;99.90
17701;DHT22;8969;48.576;12.580;2024-01-27T12:06:17;5.60;99.90
17701;DHT22;8969;48.576;12.580;2024-01-27T12:08:46;5.70;99.90
17701;DHT22;8969;48.576;12.580;2024-01-27T12:11:16;5.70;99.90
17701;DHT22;8969;48.576;12.580;2024-01-27T12:13:51;5.70;99.90
17701;DHT22;8969;48.576;12.580;2024-01-27T12:16:21;5.70;99.90
17701;DHT22;8969;48.576;12.580;2024-01-27T12:18:52;5.80;99.90
17701;DHT22;8969;48.576;12.580;2024-01-27T12:21:21;5.80;99.90
17701;DHT22;8969;48.576;12.580;2024-01-27T12:23:51;5.90;99.90
17701;DHT22;8969;48.576;12.580;2024-01-27T12:26:20;5.80;99.90
17701;DHT22;8969;48.576;12.580;2024-01-27T12:28:49;6.00;99.90
17701;DHT22;8969;48.576;12.580;2024-01-27T12:31:18;6.00;99.90
17701;DHT22;8969;48.576;12.580;2024-01-27T12:33:51;6.00;99.90
17701;DHT22;8969;48.576;12.580;2024-01-27T12:36:20;6.00;99.90
17701;DHT22;8969;48.576;12.580;2024-01-27T12:38:57;6.00;99.90
17701;DHT22;8969;48.576;12.580;2024-01-27T12:41:26;5.90;99.90
17701;DHT22;8969;48.576;12.580;2024-01-27T12:43:55;5.90;99.90
17701;DHT22;8969;48.576;12.580;2024-01-27T12:46:24;5.90;99.90
17701;DHT22;8969;48.576;12.580;2024-01-27T12:48:54;5.90;99.90
17701;DHT22;8969;48.576;12.580;2024-01-27T12:51:23;5.90;99.90
17701;DHT22;8969;48.576;12.580;2024-01-27T12:53:55;5.90;99.90
17701;DHT22;8969;48.576;12.580;2024-01-27T12:56:23;5.90;99.90
17701;DHT22;8969;48.576;12.580;2024-01-27T12:58:52;5.90;99.90
17701;DHT22;8969;48.576;12.580;2024-01-27T13:01:20;6.00;99.90
17701;DHT22;8969;48.576;12.580;2024-01-27T13:03:49;6.10;99.90
17701;DHT22;8969;48.576;12.580;2024-01-27T13:06:19;6.00;99.90
17701;DHT22;8969;48.576;12.580;2024-01-27T13:08:49;5.90;99.90
17701;DHT22;8969;48.576;12.580;2024-01-27T13:11:19;6.00;99.90
17701;DHT22;8969;48.576;12.580;2024-01-27T13:13:48;6.00;99.90
17701;DHT22;8969;48.576;12.580;2024-01-27T13:16:16;6.00;99.90
17701;DHT22;8969;48.576;12.580;2024-01-27T13:18:45;6.00;99.90
17701;DHT22;8969;48.576;12.580;2024-01-27T13:21:14;5.90;99.90
17701;DHT22;8969;48.576;12.580;2024-01-27T13:23:43;5.90;99.90
17701;DHT22;8969;48.576;12.580;2024-01-27T13:26:12;5.90;99.90
17701;DHT22;8969;48.576;12.580;2024-01-27T13:28:46;5.90;99.90
17701;DHT22;8969;48.576;12.580;2024-01-27T13:31:16;5.90;99.90
17701;DHT22;8969;48.576;12.580;2024-01-27T13:33:45;5.80;99.90
17701;DHT22;8969;48.576;12.580;2024-01-27T13:36:14;5.80;99.90
17701;DHT22;8969;48.576;12.580;2024-01-27T13:38:45;5.80;99.90
17701;DHT22;8969;48.576;12.580;2024-01-27T13:41:13;5.70;99.90
17701;DHT22;8969;48.576;12.580;2024-01-27T13:43:42;5.70;99.90
17701;DHT22;8969;48.576;12.580;2024-01-27T13:46:10;5.70;99.90
17701;DHT22;8969;48.576;12.580;2024-01-27T13:48:38;5.60;99.90
17701;DHT22;8969;48.576;12.580;2024-01-27T13:51:07;5.60;99.90
17701;DHT22;8969;48.576;12.580;2024-01-27T13:53:35;5.60;99.90
17701;DHT22;8969;48.576;12.580;2024-01-27T13:56:14;5.60;99.90
17701;DHT22;8969;48.576;12.580;2024-01-27T13:58:43;5.50;99.90
17701;DHT22;8969;48.576;12.580;2024-01-27T14:01:11;5.50;99.90
17701;DHT22;8969;48.576;12.580;2024-01-27T14:03:40;5.30;99.90
17701;DHT22;8969;48.576;12.580;2024-01-27T14:06:08;5.40;99.90
17701;DHT22;8969;48.576;12.580;2024-01-27T14:08:40;5.40;99.90
17701;DHT22;8969;48.576;12.580;2024-01-27T14:11:09;5.40;99.90
17701;DHT22;8969;48.576;12.580;2024-01-27T14:13:39;5.30;99.90
17701;DHT22;8969;48.576;12.580;2024-01-27T14:16:08;5.20;99.90
17701;DHT22;8969;48.576;12.580;2024-01-27T14:18:37;5.20;99.90
17701;DHT22;8969;48.576;12.580;2024-01-27T14:21:05;5.10;99.90
17701;DHT22;8969;48.576;12.580;2024-01-27T14:23:33;5.10;99.90
17701;DHT22;8969;48.576;12.580;2024-01-27T14:26:02;5.10;99.90
17701;DHT22;8969;48.576;12.580;2024-01-27T14:28:30;5.00;99.90
17701;DHT22;8969;48.576;12.580;2024-01-27T14:30:59;5.00;99.90
17701;DHT22;8969;48.576;12.580;2024-01-27T14:33:27;4.90;99.90
17701;DHT22;8969;48.576;12.580;2024-01-27T14:35:56;4.90;99.90
17701;DHT22;8969;48.576;12.580;2024-01-27T14:38:24;4.90;99.90
17701;DHT22;8969;48.576;12.580;2024-01-27T14:40:53;4.90;99.90
17701;DHT22;8969;48.576;12.580;2024-01-27T14:43:22;4.80;99.90
17701;DHT22;8969;48.576;12.580;2024-01-27T14:45:50;4.80;99.90
17701;DHT22;8969;48.576;12.580;2024-01-27T14:48:20;4.70;99.90
17701;DHT22;8969;48.576;12.580;2024-01-27T14:50:48;4.70;99.90
17701;DHT22;8969;48.576;12.580;2024-01-27T14:53:20;4.60;99.90
17701;DHT22;8969;48.576;12.580;2024-01-27T14:55:48;4.60;99.90
17701;DHT22;8969;48.576;12.580;2024-01-27T14:58:17;4.50;99.90
17701;DHT22;8969;48.576;12.580;2024-01-27T15:00:45;4.50;99.90
17701;DHT22;8969;48.576;12.580;2024-01-27T15:03:21;4.50;99.90
17701;DHT22;8969;48.576;12.580;2024-01-27T15:05:51;4.50;99.90
17701;DHT22;8969;48.576;12.580;2024-01-27T15:08:21;4.40;99.90
17701;DHT22;8969;48.576;12.580;2024-01-27T15:10:50;4.40;99.90
17701;DHT22;8969;48.576;12.580;2024-01-27T15:13:18;4.30;99.90
17701;DHT22;8969;48.576;12.580;2024-01-27T15:15:50;4.20;99.90
17701;DHT22;8969;48.576;12.580;2024-01-27T15:18:21;4.20;99.90
17701;DHT22;8969;48.576;12.580;2024-01-27T15:20:50;4.10;99.90
17701;DHT22;8969;48.576;12.580;2024-01-27T15:23:18;4.10;99.90
17701;DHT22;8969;48.576;12.580;2024-01-27T15:25:51;4.00;99.90
17701;DHT22;8969;48.576;12.580;2024-01-27T15:28:19;4.00;99.90
17701;DHT22;8969;48.576;12.580;2024-01-27T15:30:48;4.00;99.90
17701;DHT22;8969;48.576;12.580;2024-01-27T15:33:16;4.00;99.90
17701;DHT22;8969;48.576;12.580;2024-01-27T15:35:46;3.90;99.90
17701;DHT22;8969;48.576;12.580;2024-01-27T15:38:14;3.80;99.90
17701;DHT22;8969;48.576;12.580;2024-01-27T15:40:43;3.70;99.90
17701;DHT22;8969;48.576;12.580;2024-01-27T15:43:11;3.60;99.90
17701;DHT22;8969;48.576;12.580;2024-01-27T15:45:39;3.50;99.90
17701;DHT22;8969;48.576;12.580;2024-01-27T15:48:07;3.40;99.90
17701;DHT22;8969;48.576;12.580;2024-01-27T15:50:39;3.30;99.90
17701;DHT22;8969;48.576;12.580;2024-01-27T15:53:08;3.20;99.90
17701;DHT22;8969;48.576;12.580;2024-01-27T15:55:36;3.10;99.90
17701;DHT22;8969;48.576;12.580;2024-01-27T15:58:05;3.00;99.90
17701;DHT22;8969;48.576;12.580;2024-01-27T16:00:33;2.80;99.90